sensor_id;sensor_type;location;lat;lon;timestamp;pressure;altitude;pressure_sealevel;temperature;humidity
18504;BME280;9381;54.244;10.074;2023-12-20T00:02:22;100285.13;;;8.12;100.00
18504;BME280;9381;54.244;10.074;2023-12-20T00:07:23;100283.09;;;8.01;100.00
18504;BME280;9381;54.244;10.074;2023-12-20T00:12:23;100281.44;;;7.87;100.00
18504;BME280;9381;54.244;10.074;2023-12-20T00:17:24;100270.47;;;7.76;100.00
18504;BME280;9381;54.244;10.074;2023-12-20T00:22:24;100259.31;;;7.85;100.00
18504;BME280;9381;54.244;10.074;2023-12-20T00:27:24;100254.97;;;7.71;100.00
18504;BME280;9381;54.244;10.074;2023-12-20T00:32:24;100248.75;;;7.77;100.00
18504;BME280;9381;54.244;10.074;2023-12-20T00:37:25;100251.41;;;7.97;100.00
18504;BME280;9381;54.244;10.074;2023-12-20T00:42:25;100242.91;;;8.00;100.00
18504;BME280;9381;54.244;10.074;2023-12-20T00:47:26;100244.34;;;8.02;100.00
18504;BME280;9381;54.244;10.074;2023-12-20T00:52:26;100237.16;;;7.83;100.00
18504;BME280;9381;54.244;10.074;2023-12-20T00:57:26;100228.81;;;7.98;100.00
18504;BME280;9381;54.244;10.074;2023-12-20T01:02:27;100235.03;;;7.98;100.00
18504;BME280;9381;54.244;10.074;2023-12-20T01:07:27;100227.81;;;7.92;100.00
18504;BME280;9381;54.244;10.074;2023-12-20T01:12:27;100223.03;;;7.94;100.00
18504;BME280;9381;54.244;10.074;2023-12-20T01:17:28;100226.78;;;7.80;100.00
18504;BME280;9381;54.244;10.074;2023-12-20T01:22:28;100227.00;;;7.85;100.00
18504;BME280;9381;54.244;10.074;2023-12-20T01:27:28;100211.03;;;7.97;100.00
18504;BME280;9381;54.244;10.074;2023-12-20T01:32:29;100213.13;;;7.82;100.00
18504;BME280;9381;54.244;10.074;2023-12-20T01:37:29;100213.88;;;8.02;100.00
18504;BME280;9381;54.244;10.074;2023-12-20T01:42:29;100203.72;;;8.10;100.00
18504;BME280;9381;54.244;10.074;2023-12-20T01:47:30;100187.19;;;8.44;100.00
18504;BME280;9381;54.244;10.074;2023-12-20T01:52:31;100181.28;;;8.16;100.00
18504;BME280;9381;54.244;10.074;2023-12-20T01:57:33;100176.94;;;8.15;100.00
18504;BME280;9381;54.244;10.074;2023-12-20T02:02:34;100175.31;;;8.14;100.00
18504;BME280;9381;54.244;10.074;2023-12-20T02:07:36;100167.06;;;8.09;100.00
18504;BME280;9381;54.244;10.074;2023-12-20T02:12:37;100157.84;;;8.36;100.00
18504;BME280;9381;54.244;10.074;2023-12-20T02:17:38;100152.09;;;8.57;100.00
18504;BME280;9381;54.244;10.074;2023-12-20T02:22:39;100154.44;;;8.47;100.00
18504;BME280;9381;54.244;10.074;2023-12-20T02:27:40;100153.22;;;8.43;100.00
18504;BME280;9381;54.244;10.074;2023-12-20T02:32:40;100133.94;;;8.46;100.00
18504;BME280;9381;54.244;10.074;2023-12-20T02:37:41;100126.72;;;8.40;100.00
18504;BME280;9381;54.244;10.074;2023-12-20T02:42:41;100123.50;;;8.19;100.00
18504;BME280;9381;54.244;10.074;2023-12-20T02:47:41;100114.31;;;8.33;100.00
18504;BME280;9381;54.244;10.074;2023-12-20T02:52:44;100114.09;;;8.34;100.00
18504;BME280;9381;54.244;10.074;2023-12-20T02:57:45;100098.72;;;8.65;100.00
18504;BME280;9381;54.244;10.074;2023-12-20T03:02:45;100090.00;;;8.70;100.00
18504;BME280;9381;54.244;10.074;2023-12-20T03:07:46;100078.34;;;8.76;100.00
18504;BME280;9381;54.244;10.074;2023-12-20T03:12:46;100070.00;;;9.02;100.00
18504;BME280;9381;54.244;10.074;2023-12-20T03:17:46;100067.88;;;8.86;100.00
18504;BME280;9381;54.244;10.074;2023-12-20T03:22:47;100056.31;;;8.79;100.00
18504;BME280;9381;54.244;10.074;2023-12-20T03:27:47;100047.75;;;8.64;100.00
18504;BME280;9381;54.244;10.074;2023-12-20T03:32:47;100051.66;;;8.44;100.00
18504;BME280;9381;54.244;10.074;2023-12-20T03:37:47;100040.72;;;8.63;100.00
18504;BME280;9381;54.244;10.074;2023-12-20T03:42:48;100063.22;;;8.44;100.00
18504;BME280;9381;54.244;10.074;2023-12-20T03:47:48;100028.22;;;8.13;100.00
18504;BME280;9381;54.244;10.074;2023-12-20T03:52:49;100019.63;;;8.29;100.00
18504;BME280;9381;54.244;10.074;2023-12-20T03:57:50;100016.81;;;8.42;100.00
18504;BME280;9381;54.244;10.074;2023-12-20T04:02:50;100003.16;;;8.44;100.00
18504;BME280;9381;54.244;10.074;2023-12-20T04:07:50;100002.03;;;8.27;100.00
18504;BME280;9381;54.244;10.074;2023-12-20T04:12:51;100017.41;;;8.26;100.00
18504;BME280;9381;54.244;10.074;2023-12-20T04:17:51;100029.41;;;8.72;100.00
18504;BME280;9381;54.244;10.074;2023-12-20T04:22:51;100007.28;;;8.88;100.00
18504;BME280;9381;54.244;10.074;2023-12-20T04:27:52;100017.63;;;8.91;100.00
18504;BME280;9381;54.244;10.074;2023-12-20T04:32:52;99982.63;;;8.85;100.00
18504;BME280;9381;54.244;10.074;2023-12-20T04:37:52;99978.09;;;8.61;100.00
18504;BME280;9381;54.244;10.074;2023-12-20T04:42:53;99994.69;;;8.09;100.00
18504;BME280;9381;54.244;10.074;2023-12-20T04:47:53;99973.84;;;8.29;100.00
18504;BME280;9381;54.244;10.074;2023-12-20T04:52:54;99971.03;;;8.42;100.00
18504;BME280;9381;54.244;10.074;2023-12-20T04:57:55;99974.69;;;8.48;100.00
18504;BME280;9381;54.244;10.074;2023-12-20T05:02:56;99970.94;;;8.31;100.00
18504;BME280;9381;54.244;10.074;2023-12-20T05:07:56;99964.66;;;8.37;100.00
18504;BME280;9381;54.244;10.074;2023-12-20T05:12:57;99952.75;;;8.26;100.00
18504;BME280;9381;54.244;10.074;2023-12-20T05:17:57;99944.66;;;8.44;100.00
18504;BME280;9381;54.244;10.074;2023-12-20T05:22:57;99933.91;;;8.44;100.00
18504;BME280;9381;54.244;10.074;2023-12-20T05:27:58;99934.25;;;8.54;100.00
18504;BME280;9381;54.244;10.074;2023-12-20T05:32:58;99942.69;;;8.75;100.00
18504;BME280;9381;54.244;10.074;2023-12-20T05:37:59;99916.41;;;8.89;100.00
18504;BME280;9381;54.244;10.074;2023-12-20T05:42:59;99922.81;;;8.94;100.00
18504;BME280;9381;54.244;10.074;2023-12-20T05:47:59;99917.16;;;8.60;100.00
18504;BME280;9381;54.244;10.074;2023-12-20T05:53:00;99911.63;;;8.73;100.00
18504;BME280;9381;54.244;10.074;2023-12-20T05:58:00;99905.09;;;8.63;100.00
18504;BME280;9381;54.244;10.074;2023-12-20T06:03:00;99911.00;;;8.53;100.00
18504;BME280;9381;54.244;10.074;2023-12-20T06:08:01;99903.84;;;8.65;100.00
18504;BME280;9381;54.244;10.074;2023-12-20T06:13:03;99889.31;;;8.66;100.00
18504;BME280;9381;54.244;10.074;2023-12-20T06:18:04;99877.28;;;8.68;100.00
18504;BME280;9381;54.244;10.074;2023-12-20T06:23:05;99866.53;;;8.80;100.00
18504;BME280;9381;54.244;10.074;2023-12-20T06:28:05;99852.16;;;8.86;100.00
18504;BME280;9381;54.244;10.074;2023-12-20T06:33:06;99836.47;;;8.65;100.00
18504;BME280;9381;54.244;10.074;2023-12-20T06:38:07;99841.94;;;8.76;100.00
18504;BME280;9381;54.244;10.074;2023-12-20T06:43:07;99857.25;;;8.76;100.00
18504;BME280;9381;54.244;10.074;2023-12-20T06:48:07;99849.16;;;8.94;100.00
18504;BME280;9381;54.244;10.074;2023-12-20T06:53:08;99856.78;;;8.97;100.00
18504;BME280;9381;54.244;10.074;2023-12-20T06:58:08;99846.75;;;8.86;100.00
18504;BME280;9381;54.244;10.074;2023-12-20T07:03:09;99840.19;;;9.11;100.00
18504;BME280;9381;54.244;10.074;2023-12-20T07:08:11;99838.28;;;9.30;100.00
18504;BME280;9381;54.244;10.074;2023-12-20T07:13:11;99823.00;;;9.24;100.00
18504;BME280;9381;54.244;10.074;2023-12-20T07:18:12;99820.31;;;9.24;100.00
18504;BME280;9381;54.244;10.074;2023-12-20T07:23:12;99813.78;;;9.02;100.00
18504;BME280;9381;54.244;10.074;2023-12-20T07:28:13;99825.13;;;9.22;100.00
18504;BME280;9381;54.244;10.074;2023-12-20T07:33:13;99816.63;;;8.89;100.00
18504;BME280;9381;54.244;10.074;2023-12-20T07:38:13;99813.72;;;8.90;100.00
18504;BME280;9381;54.244;10.074;2023-12-20T07:43:14;99802.75;;;8.74;100.00
18504;BME280;9381;54.244;10.074;2023-12-20T07:48:14;99789.72;;;8.71;100.00
18504;BME280;9381;54.244;10.074;2023-12-20T07:53:15;99791.25;;;8.49;100.00
18504;BME280;9381;54.244;10.074;2023-12-20T07:58:15;99792.25;;;8.84;100.00
18504;BME280;9381;54.244;10.074;2023-12-20T08:03:15;99786.06;;;8.95;100.00
18504;BME280;9381;54.244;10.074;2023-12-20T08:08:16;99779.56;;;8.84;100.00
18504;BME280;9381;54.244;10.074;2023-12-20T08:13:16;99772.53;;;8.83;100.00
18504;BME280;9381;54.244;10.074;2023-12-20T08:18:17;99756.28;;;8.90;100.00
18504;BME280;9381;54.244;10.074;2023-12-20T08:23:17;99737.91;;;8.98;100.00
18504;BME280;9381;54.244;10.074;2023-12-20T08:28:17;99743.66;;;8.72;100.00
18504;BME280;9381;54.244;10.074;2023-12-20T08:33:18;99745.47;;;8.78;100.00
18504;BME280;9381;54.244;10.074;2023-12-20T08:38:18;99778.19;;;8.93;100.00
18504;BME280;9381;54.244;10.074;2023-12-20T08:43:18;99762.94;;;8.58;100.00
18504;BME280;9381;54.244;10.074;2023-12-20T08:48:19;99738.84;;;8.63;100.00
18504;BME280;9381;54.244;10.074;2023-12-20T08:53:19;99716.16;;;8.53;100.00
18504;BME280;9381;54.244;10.074;2023-12-20T08:58:19;99745.41;;;8.13;100.00
18504;BME280;9381;54.244;10.074;2023-12-20T09:03:20;99747.19;;;8.26;100.00
18504;BME280;9381;54.244;10.074;2023-12-20T09:08:20;99767.47;;;8.28;100.00
18504;BME280;9381;54.244;10.074;2023-12-20T09:13:21;99770.00;;;8.23;100.00
18504;BME280;9381;54.244;10.074;2023-12-20T09:18:26;99781.44;;;8.19;100.00
18504;BME280;9381;54.244;10.074;2023-12-20T09:23:27;99783.34;;;8.12;100.00
18504;BME280;9381;54.244;10.074;2023-12-20T09:28:27;99804.84;;;8.18;100.00
18504;BME280;9381;54.244;10.074;2023-12-20T09:33:27;99812.97;;;8.36;100.00
18504;BME280;9381;54.244;10.074;2023-12-20T09:38:28;99819.34;;;8.17;100.00
18504;BME280;9381;54.244;10.074;2023-12-20T09:43:29;99820.13;;;8.24;100.00
18504;BME280;9381;54.244;10.074;2023-12-20T09:48:31;99820.06;;;8.31;100.00
18504;BME280;9381;54.244;10.074;2023-12-20T09:53:33;99822.44;;;8.39;100.00
18504;BME280;9381;54.244;10.074;2023-12-20T09:58:37;99828.06;;;8.19;100.00
18504;BME280;9381;54.244;10.074;2023-12-20T10:03:39;99813.69;;;8.43;100.00
18504;BME280;9381;54.244;10.074;2023-12-20T10:08:41;99808.31;;;8.43;100.00
18504;BME280;9381;54.244;10.074;2023-12-20T10:13:42;99805.75;;;8.66;100.00
18504;BME280;9381;54.244;10.074;2023-12-20T10:18:42;99804.72;;;8.67;100.00
18504;BME280;9381;54.244;10.074;2023-12-20T10:23:43;99794.78;;;8.79;100.00
18504;BME280;9381;54.244;10.074;2023-12-20T10:28:43;99797.41;;;9.15;100.00
18504;BME280;9381;54.244;10.074;2023-12-20T10:33:44;99788.00;;;8.76;100.00
18504;BME280;9381;54.244;10.074;2023-12-20T10:38:46;99785.72;;;8.91;100.00
18504;BME280;9381;54.244;10.074;2023-12-20T10:43:47;99800.72;;;9.28;99.81
18504;BME280;9381;54.244;10.074;2023-12-20T10:48:48;99798.34;;;10.42;95.88
18504;BME280;9381;54.244;10.074;2023-12-20T10:53:51;99769.75;;;11.90;88.46
18504;BME280;9381;54.244;10.074;2023-12-20T10:58:52;99777.69;;;12.51;81.23
18504;BME280;9381;54.244;10.074;2023-12-20T11:03:53;99797.03;;;10.95;85.78
18504;BME280;9381;54.244;10.074;2023-12-20T11:14:03;99774.69;;;9.34;91.52
18504;BME280;9381;54.244;10.074;2023-12-20T11:19:07;99764.13;;;10.87;89.55
18504;BME280;9381;54.244;10.074;2023-12-20T11:24:07;99749.41;;;11.71;81.68
18504;BME280;9381;54.244;10.074;2023-12-20T11:34:35;99747.78;;;11.70;82.13
18504;BME280;9381;54.244;10.074;2023-12-20T11:39:36;99755.53;;;11.34;81.37
18504;BME280;9381;54.244;10.074;2023-12-20T11:44:37;99749.34;;;11.06;84.72
18504;BME280;9381;54.244;10.074;2023-12-20T11:49:37;99760.66;;;11.03;83.47
18504;BME280;9381;54.244;10.074;2023-12-20T11:54:37;99761.63;;;10.18;86.23
18504;BME280;9381;54.244;10.074;2023-12-20T11:59:38;99764.06;;;9.73;88.12
18504;BME280;9381;54.244;10.074;2023-12-20T12:04:41;99756.22;;;10.18;89.08
18504;BME280;9381;54.244;10.074;2023-12-20T12:09:41;99751.50;;;9.56;87.37
18504;BME280;9381;54.244;10.074;2023-12-20T12:14:42;99768.50;;;9.56;90.82
18504;BME280;9381;54.244;10.074;2023-12-20T12:19:43;99761.25;;;9.91;90.24
18504;BME280;9381;54.244;10.074;2023-12-20T12:24:44;99751.72;;;10.35;86.63
18504;BME280;9381;54.244;10.074;2023-12-20T12:30:04;99745.66;;;10.05;85.72
18504;BME280;9381;54.244;10.074;2023-12-20T12:35:07;99763.50;;;9.83;84.83
18504;BME280;9381;54.244;10.074;2023-12-20T12:40:13;99752.00;;;9.87;85.27
18504;BME280;9381;54.244;10.074;2023-12-20T12:45:13;99773.22;;;9.49;85.21
18504;BME280;9381;54.244;10.074;2023-12-20T12:50:14;99794.69;;;9.56;86.65
18504;BME280;9381;54.244;10.074;2023-12-20T12:55:14;99789.16;;;9.51;87.10
18504;BME280;9381;54.244;10.074;2023-12-20T13:00:15;99795.00;;;9.36;87.15
18504;BME280;9381;54.244;10.074;2023-12-20T13:05:15;99789.31;;;9.56;87.46
18504;BME280;9381;54.244;10.074;2023-12-20T13:10:15;99775.91;;;9.38;87.21
18504;BME280;9381;54.244;10.074;2023-12-20T13:15:19;99784.47;;;9.46;86.59
18504;BME280;9381;54.244;10.074;2023-12-20T13:20:19;99770.84;;;9.53;85.79
18504;BME280;9381;54.244;10.074;2023-12-20T13:25:20;99764.66;;;9.64;85.25
18504;BME280;9381;54.244;10.074;2023-12-20T13:30:20;99770.75;;;9.48;84.97
18504;BME280;9381;54.244;10.074;2023-12-20T13:35:20;99768.84;;;9.37;84.51
18504;BME280;9381;54.244;10.074;2023-12-20T13:40:21;99772.72;;;9.41;84.02
18504;BME280;9381;54.244;10.074;2023-12-20T13:45:21;99784.16;;;9.25;84.93
18504;BME280;9381;54.244;10.074;2023-12-20T13:50:21;99778.25;;;9.05;84.73
18504;BME280;9381;54.244;10.074;2023-12-20T13:55:22;99796.88;;;8.95;85.87
18504;BME280;9381;54.244;10.074;2023-12-20T14:00:27;99802.53;;;9.05;86.15
18504;BME280;9381;54.244;10.074;2023-12-20T14:05:27;99797.81;;;9.00;85.87
18504;BME280;9381;54.244;10.074;2023-12-20T14:10:30;99812.03;;;8.78;85.15
18504;BME280;9381;54.244;10.074;2023-12-20T14:15:30;99810.94;;;8.97;85.79
18504;BME280;9381;54.244;10.074;2023-12-20T14:20:36;99822.97;;;8.65;84.84
18504;BME280;9381;54.244;10.074;2023-12-20T14:25:40;99826.44;;;8.54;84.56
18504;BME280;9381;54.244;10.074;2023-12-20T14:30:41;99820.59;;;8.57;84.59
18504;BME280;9381;54.244;10.074;2023-12-20T14:35:41;99823.56;;;8.67;83.83
18504;BME280;9381;54.244;10.074;2023-12-20T14:40:44;99819.34;;;8.71;84.33
18504;BME280;9381;54.244;10.074;2023-12-20T14:45:44;99826.72;;;8.64;85.13
18504;BME280;9381;54.244;10.074;2023-12-20T14:50:44;99835.50;;;8.60;85.68
18504;BME280;9381;54.244;10.074;2023-12-20T14:55:47;99838.22;;;8.35;87.37
18504;BME280;9381;54.244;10.074;2023-12-20T15:00:48;99835.84;;;8.27;88.42
18504;BME280;9381;54.244;10.074;2023-12-20T15:05:48;99833.59;;;8.42;89.26
18504;BME280;9381;54.244;10.074;2023-12-20T15:10:49;99826.22;;;8.13;91.88
18504;BME280;9381;54.244;10.074;2023-12-20T15:15:50;99823.59;;;8.07;92.62
18504;BME280;9381;54.244;10.074;2023-12-20T15:20:50;99839.38;;;8.03;93.30
18504;BME280;9381;54.244;10.074;2023-12-20T15:25:51;99833.09;;;8.09;93.47
18504;BME280;9381;54.244;10.074;2023-12-20T15:30:51;99832.78;;;7.99;93.23
18504;BME280;9381;54.244;10.074;2023-12-20T15:35:52;99836.31;;;7.75;95.13
18504;BME280;9381;54.244;10.074;2023-12-20T15:40:52;99846.69;;;7.72;95.92
18504;BME280;9381;54.244;10.074;2023-12-20T15:45:52;99835.75;;;7.91;94.66
18504;BME280;9381;54.244;10.074;2023-12-20T15:50:53;99840.81;;;8.06;94.83
18504;BME280;9381;54.244;10.074;2023-12-20T15:55:53;99840.34;;;8.09;93.94
18504;BME280;9381;54.244;10.074;2023-12-20T16:00:54;99845.66;;;8.22;92.78
18504;BME280;9381;54.244;10.074;2023-12-20T16:05:54;99830.84;;;8.06;92.98
18504;BME280;9381;54.244;10.074;2023-12-20T16:10:54;99829.25;;;8.23;92.19
18504;BME280;9381;54.244;10.074;2023-12-20T16:15:55;99829.44;;;8.46;91.06
18504;BME280;9381;54.244;10.074;2023-12-20T16:20:55;99838.84;;;8.37;91.42
18504;BME280;9381;54.244;10.074;2023-12-20T16:25:57;99833.75;;;8.29;91.19
18504;BME280;9381;54.244;10.074;2023-12-20T16:30:58;99847.31;;;8.41;90.25
18504;BME280;9381;54.244;10.074;2023-12-20T16:35:58;99849.47;;;8.32;90.85
18504;BME280;9381;54.244;10.074;2023-12-20T16:40:58;99842.88;;;8.28;90.16
18504;BME280;9381;54.244;10.074;2023-12-20T16:45:59;99841.16;;;8.34;90.77
18504;BME280;9381;54.244;10.074;2023-12-20T16:50:59;99836.97;;;8.38;90.61
18504;BME280;9381;54.244;10.074;2023-12-20T16:55:59;99836.25;;;8.31;90.91
18504;BME280;9381;54.244;10.074;2023-12-20T17:01:00;99837.03;;;8.31;91.61
18504;BME280;9381;54.244;10.074;2023-12-20T17:06:00;99836.00;;;8.32;91.90
18504;BME280;9381;54.244;10.074;2023-12-20T17:11:00;99831.56;;;7.95;93.86
18504;BME280;9381;54.244;10.074;2023-12-20T17:16:01;99828.09;;;7.88;94.16
18504;BME280;9381;54.244;10.074;2023-12-20T17:21:01;99816.00;;;7.97;93.79
18504;BME280;9381;54.244;10.074;2023-12-20T17:26:02;99821.44;;;8.15;92.20
18504;BME280;9381;54.244;10.074;2023-12-20T17:31:03;99819.25;;;8.30;92.01
18504;BME280;9381;54.244;10.074;2023-12-20T17:36:03;99808.47;;;8.30;91.09
18504;BME280;9381;54.244;10.074;2023-12-20T17:41:04;99803.53;;;8.27;91.25
18504;BME280;9381;54.244;10.074;2023-12-20T17:46:04;99801.13;;;8.19;91.44
18504;BME280;9381;54.244;10.074;2023-12-20T17:51:05;99799.31;;;8.31;92.37
18504;BME280;9381;54.244;10.074;2023-12-20T17:56:05;99781.66;;;8.17;92.65
18504;BME280;9381;54.244;10.074;2023-12-20T18:01:06;99791.22;;;8.13;93.53
18504;BME280;9381;54.244;10.074;2023-12-20T18:06:06;99790.44;;;8.31;94.63
18504;BME280;9381;54.244;10.074;2023-12-20T18:11:06;99787.50;;;8.32;94.00
18504;BME280;9381;54.244;10.074;2023-12-20T18:16:07;99777.06;;;8.18;95.50
18504;BME280;9381;54.244;10.074;2023-12-20T18:21:09;99768.50;;;8.27;95.74
18504;BME280;9381;54.244;10.074;2023-12-20T18:26:10;99763.25;;;8.32;96.50
18504;BME280;9381;54.244;10.074;2023-12-20T18:31:10;99753.75;;;8.30;97.88
18504;BME280;9381;54.244;10.074;2023-12-20T18:36:10;99750.59;;;8.15;100.00
18504;BME280;9381;54.244;10.074;2023-12-20T18:41:11;99746.75;;;8.04;100.00
18504;BME280;9381;54.244;10.074;2023-12-20T18:46:14;99741.16;;;8.06;100.00
18504;BME280;9381;54.244;10.074;2023-12-20T18:51:15;99738.00;;;7.91;100.00
18504;BME280;9381;54.244;10.074;2023-12-20T18:56:15;99716.41;;;7.97;100.00
18504;BME280;9381;54.244;10.074;2023-12-20T19:01:15;99724.53;;;7.91;100.00
18504;BME280;9381;54.244;10.074;2023-12-20T19:06:16;99717.00;;;8.17;100.00
18504;BME280;9381;54.244;10.074;2023-12-20T19:11:16;99715.97;;;8.00;100.00
18504;BME280;9381;54.244;10.074;2023-12-20T19:16:18;99702.50;;;8.18;100.00
18504;BME280;9381;54.244;10.074;2023-12-20T19:21:18;99706.66;;;7.96;100.00
18504;BME280;9381;54.244;10.074;2023-12-20T19:26:19;99694.13;;;7.90;100.00
18504;BME280;9381;54.244;10.074;2023-12-20T19:31:20;99686.19;;;8.13;100.00
18504;BME280;9381;54.244;10.074;2023-12-20T19:36:20;99668.31;;;7.83;100.00
18504;BME280;9381;54.244;10.074;2023-12-20T19:41:20;99662.72;;;7.84;100.00
18504;BME280;9381;54.244;10.074;2023-12-20T19:46:21;99663.38;;;7.62;100.00
18504;BME280;9381;54.244;10.074;2023-12-20T19:51:21;99641.53;;;7.52;100.00
18504;BME280;9381;54.244;10.074;2023-12-20T19:56:21;99630.72;;;7.58;100.00
18504;BME280;9381;54.244;10.074;2023-12-20T20:01:22;99630.88;;;7.63;100.00
18504;BME280;9381;54.244;10.074;2023-12-20T20:06:23;99617.13;;;7.53;100.00
18504;BME280;9381;54.244;10.074;2023-12-20T20:11:23;99609.94;;;7.47;100.00
18504;BME280;9381;54.244;10.074;2023-12-20T20:16:24;99595.25;;;7.43;100.00
18504;BME280;9381;54.244;10.074;2023-12-20T20:21:24;99586.00;;;7.57;100.00
18504;BME280;9381;54.244;10.074;2023-12-20T20:26:24;99577.47;;;7.78;100.00
18504;BME280;9381;54.244;10.074;2023-12-20T20:31:25;99570.34;;;7.54;100.00
18504;BME280;9381;54.244;10.074;2023-12-20T20:36:27;99551.91;;;7.69;100.00
18504;BME280;9381;54.244;10.074;2023-12-20T20:41:27;99540.28;;;7.57;100.00
18504;BME280;9381;54.244;10.074;2023-12-20T20:46:28;99540.97;;;7.53;100.00
18504;BME280;9381;54.244;10.074;2023-12-20T20:51:30;99524.88;;;7.64;100.00
18504;BME280;9381;54.244;10.074;2023-12-20T20:56:30;99521.31;;;7.82;100.00
18504;BME280;9381;54.244;10.074;2023-12-20T21:01:30;99515.59;;;7.60;100.00
18504;BME280;9381;54.244;10.074;2023-12-20T21:06:31;99503.19;;;7.59;100.00
18504;BME280;9381;54.244;10.074;2023-12-20T21:11:33;99486.75;;;7.67;100.00
18504;BME280;9381;54.244;10.074;2023-12-20T21:16:34;99471.38;;;7.56;100.00
18504;BME280;9381;54.244;10.074;2023-12-20T21:21:35;99474.75;;;7.81;100.00
18504;BME280;9381;54.244;10.074;2023-12-20T21:26:35;99477.03;;;7.66;100.00
18504;BME280;9381;54.244;10.074;2023-12-20T21:31:36;99485.41;;;7.58;100.00
18504;BME280;9381;54.244;10.074;2023-12-20T21:36:36;99488.78;;;7.54;100.00
18504;BME280;9381;54.244;10.074;2023-12-20T21:41:36;99479.66;;;7.84;100.00
18504;BME280;9381;54.244;10.074;2023-12-20T21:46:37;99448.28;;;7.78;100.00
18504;BME280;9381;54.244;10.074;2023-12-20T21:51:40;99457.88;;;7.74;100.00
18504;BME280;9381;54.244;10.074;2023-12-20T21:56:41;99444.03;;;8.00;100.00
18504;BME280;9381;54.244;10.074;2023-12-20T22:01:42;99432.47;;;8.11;100.00
18504;BME280;9381;54.244;10.074;2023-12-20T22:06:45;99418.06;;;8.06;100.00
18504;BME280;9381;54.244;10.074;2023-12-20T22:11:45;99414.41;;;8.12;100.00
18504;BME280;9381;54.244;10.074;2023-12-20T22:16:46;99399.31;;;8.11;100.00
18504;BME280;9381;54.244;10.074;2023-12-20T22:21:46;99397.25;;;8.24;100.00
18504;BME280;9381;54.244;10.074;2023-12-20T22:26:46;99410.94;;;8.34;100.00
18504;BME280;9381;54.244;10.074;2023-12-20T22:31:47;99397.38;;;8.29;100.00
18504;BME280;9381;54.244;10.074;2023-12-20T22:36:48;99386.25;;;8.26;100.00
18504;BME280;9381;54.244;10.074;2023-12-20T22:41:48;99363.66;;;8.38;100.00
18504;BME280;9381;54.244;10.074;2023-12-20T22:46:48;99356.28;;;8.34;100.00
18504;BME280;9381;54.244;10.074;2023-12-20T22:51:49;99333.88;;;8.33;100.00
18504;BME280;9381;54.244;10.074;2023-12-20T22:56:49;99312.81;;;8.30;100.00
18504;BME280;9381;54.244;10.074;2023-12-20T23:01:54;99298.06;;;8.21;100.00
18504;BME280;9381;54.244;10.074;2023-12-20T23:06:54;99278.03;;;8.17;100.00
18504;BME280;9381;54.244;10.074;2023-12-20T23:11:54;99275.34;;;8.17;100.00
18504;BME280;9381;54.244;10.074;2023-12-20T23:16:55;99272.66;;;8.06;100.00
18504;BME280;9381;54.244;10.074;2023-12-20T23:21:55;99279.31;;;8.03;100.00
18504;BME280;9381;54.244;10.074;2023-12-20T23:26:56;99271.13;;;8.10;100.00
18504;BME280;9381;54.244;10.074;2023-12-20T23:31:57;99263.38;;;8.13;100.00
18504;BME280;9381;54.244;10.074;2023-12-20T23:36:57;99283.91;;;7.91;100.00
18504;BME280;9381;54.244;10.074;2023-12-20T23:41:57;99285.06;;;8.07;100.00
18504;BME280;9381;54.244;10.074;2023-12-20T23:46:58;99274.66;;;8.10;100.00
18504;BME280;9381;54.244;10.074;2023-12-20T23:51:58;99270.19;;;8.04;100.00
18504;BME280;9381;54.244;10.074;2023-12-20T23:56:58;99239.88;;;8.32;100.00
